sensor_id;sensor_type;location;lat;lon;timestamp;P1;durP1;ratioP1;P2;durP2;ratioP2
76656;SDS011;65576;47.714;9.414;2024-02-16T00:00:06;1.88;;;1.30;;
76656;SDS011;65576;47.714;9.414;2024-02-16T00:02:32;1.55;;;1.45;;
76656;SDS011;65576;47.714;9.414;2024-02-16T00:04:57;1.77;;;1.30;;
76656;SDS011;65576;47.714;9.414;2024-02-16T00:07:23;2.95;;;1.80;;
76656;SDS011;65576;47.714;9.414;2024-02-16T00:09:49;1.42;;;1.30;;
76656;SDS011;65576;47.714;9.414;2024-02-16T00:12:14;2.15;;;1.58;;
76656;SDS011;65576;47.714;9.414;2024-02-16T00:14:39;1.55;;;1.20;;
76656;SDS011;65576;47.714;9.414;2024-02-16T00:17:05;1.27;;;1.15;;
76656;SDS011;65576;47.714;9.414;2024-02-16T00:19:31;2.25;;;1.40;;
76656;SDS011;65576;47.714;9.414;2024-02-16T00:21:57;2.78;;;1.52;;
76656;SDS011;65576;47.714;9.414;2024-02-16T00:24:22;3.70;;;1.70;;
76656;SDS011;65576;47.714;9.414;2024-02-16T00:26:47;1.92;;;1.63;;
76656;SDS011;65576;47.714;9.414;2024-02-16T00:29:13;1.50;;;1.33;;
76656;SDS011;65576;47.714;9.414;2024-02-16T00:31:38;4.88;;;1.88;;
76656;SDS011;65576;47.714;9.414;2024-02-16T00:34:04;2.20;;;1.88;;
76656;SDS011;65576;47.714;9.414;2024-02-16T00:36:29;1.20;;;1.10;;
76656;SDS011;65576;47.714;9.414;2024-02-16T00:38:55;2.88;;;1.70;;
76656;SDS011;65576;47.714;9.414;2024-02-16T00:41:21;1.35;;;1.25;;
76656;SDS011;65576;47.714;9.414;2024-02-16T00:43:48;1.30;;;1.17;;
76656;SDS011;65576;47.714;9.414;2024-02-16T00:46:13;4.97;;;1.90;;
76656;SDS011;65576;47.714;9.414;2024-02-16T00:48:38;1.45;;;1.35;;
76656;SDS011;65576;47.714;9.414;2024-02-16T00:51:04;2.08;;;1.55;;
76656;SDS011;65576;47.714;9.414;2024-02-16T00:53:29;1.90;;;1.30;;
76656;SDS011;65576;47.714;9.414;2024-02-16T00:55:54;2.38;;;1.60;;
76656;SDS011;65576;47.714;9.414;2024-02-16T00:58:20;1.70;;;1.40;;
76656;SDS011;65576;47.714;9.414;2024-02-16T01:00:45;1.52;;;0.95;;
76656;SDS011;65576;47.714;9.414;2024-02-16T01:03:10;1.73;;;1.63;;
76656;SDS011;65576;47.714;9.414;2024-02-16T01:05:37;1.48;;;1.38;;
76656;SDS011;65576;47.714;9.414;2024-02-16T01:08:03;1.50;;;1.33;;
76656;SDS011;65576;47.714;9.414;2024-02-16T01:10:29;1.88;;;1.40;;
76656;SDS011;65576;47.714;9.414;2024-02-16T01:12:54;2.40;;;1.88;;
76656;SDS011;65576;47.714;9.414;2024-02-16T01:15:21;1.88;;;1.63;;
76656;SDS011;65576;47.714;9.414;2024-02-16T01:17:46;1.63;;;1.52;;
76656;SDS011;65576;47.714;9.414;2024-02-16T01:20:11;2.08;;;1.52;;
76656;SDS011;65576;47.714;9.414;2024-02-16T01:22:37;1.67;;;1.38;;
76656;SDS011;65576;47.714;9.414;2024-02-16T01:25:03;1.52;;;1.15;;
76656;SDS011;65576;47.714;9.414;2024-02-16T01:27:28;3.17;;;1.88;;
76656;SDS011;65576;47.714;9.414;2024-02-16T01:29:54;2.90;;;1.83;;
76656;SDS011;65576;47.714;9.414;2024-02-16T01:32:19;2.35;;;1.73;;
76656;SDS011;65576;47.714;9.414;2024-02-16T01:34:44;1.27;;;0.98;;
76656;SDS011;65576;47.714;9.414;2024-02-16T01:37:12;2.90;;;1.70;;
76656;SDS011;65576;47.714;9.414;2024-02-16T01:39:37;1.52;;;1.20;;
76656;SDS011;65576;47.714;9.414;2024-02-16T01:42:03;2.50;;;1.92;;
76656;SDS011;65576;47.714;9.414;2024-02-16T01:44:28;3.33;;;1.05;;
76656;SDS011;65576;47.714;9.414;2024-02-16T01:46:53;1.30;;;1.20;;
76656;SDS011;65576;47.714;9.414;2024-02-16T01:49:19;2.47;;;1.95;;
76656;SDS011;65576;47.714;9.414;2024-02-16T01:51:44;2.63;;;1.90;;
76656;SDS011;65576;47.714;9.414;2024-02-16T01:54:10;1.85;;;1.75;;
76656;SDS011;65576;47.714;9.414;2024-02-16T01:56:36;2.08;;;1.30;;
76656;SDS011;65576;47.714;9.414;2024-02-16T01:59:01;1.08;;;1.00;;
76656;SDS011;65576;47.714;9.414;2024-02-16T02:01:27;1.55;;;1.45;;
76656;SDS011;65576;47.714;9.414;2024-02-16T02:03:52;1.73;;;1.45;;
76656;SDS011;65576;47.714;9.414;2024-02-16T02:06:17;9.40;;;1.52;;
76656;SDS011;65576;47.714;9.414;2024-02-16T02:08:43;1.55;;;1.42;;
76656;SDS011;65576;47.714;9.414;2024-02-16T02:11:08;1.23;;;1.13;;
76656;SDS011;65576;47.714;9.414;2024-02-16T02:13:34;1.75;;;1.38;;
76656;SDS011;65576;47.714;9.414;2024-02-16T02:15:59;2.47;;;2.05;;
76656;SDS011;65576;47.714;9.414;2024-02-16T02:18:26;2.83;;;1.75;;
76656;SDS011;65576;47.714;9.414;2024-02-16T02:20:51;1.40;;;1.08;;
76656;SDS011;65576;47.714;9.414;2024-02-16T02:23:18;2.55;;;1.25;;
76656;SDS011;65576;47.714;9.414;2024-02-16T02:25:44;2.28;;;1.13;;
76656;SDS011;65576;47.714;9.414;2024-02-16T02:28:10;3.38;;;1.50;;
76656;SDS011;65576;47.714;9.414;2024-02-16T02:30:35;3.60;;;1.60;;
76656;SDS011;65576;47.714;9.414;2024-02-16T02:33:00;3.65;;;1.75;;
76656;SDS011;65576;47.714;9.414;2024-02-16T02:35:26;1.35;;;1.23;;
76656;SDS011;65576;47.714;9.414;2024-02-16T02:37:51;5.40;;;0.93;;
76656;SDS011;65576;47.714;9.414;2024-02-16T02:40:17;0.93;;;0.80;;
76656;SDS011;65576;47.714;9.414;2024-02-16T02:42:42;2.78;;;1.85;;
76656;SDS011;65576;47.714;9.414;2024-02-16T02:45:08;1.77;;;1.30;;
76656;SDS011;65576;47.714;9.414;2024-02-16T02:47:34;2.60;;;1.45;;
76656;SDS011;65576;47.714;9.414;2024-02-16T02:50:00;1.55;;;1.30;;
76656;SDS011;65576;47.714;9.414;2024-02-16T02:52:25;2.60;;;1.80;;
76656;SDS011;65576;47.714;9.414;2024-02-16T02:54:51;1.63;;;1.10;;
76656;SDS011;65576;47.714;9.414;2024-02-16T02:57:16;2.67;;;1.42;;
76656;SDS011;65576;47.714;9.414;2024-02-16T02:59:41;0.60;;;0.55;;
76656;SDS011;65576;47.714;9.414;2024-02-16T03:02:06;1.83;;;1.67;;
76656;SDS011;65576;47.714;9.414;2024-02-16T03:04:32;2.28;;;1.73;;
76656;SDS011;65576;47.714;9.414;2024-02-16T03:06:58;1.58;;;1.42;;
76656;SDS011;65576;47.714;9.414;2024-02-16T03:09:23;1.30;;;1.10;;
76656;SDS011;65576;47.714;9.414;2024-02-16T03:11:49;2.90;;;1.45;;
76656;SDS011;65576;47.714;9.414;2024-02-16T03:14:15;2.72;;;1.52;;
76656;SDS011;65576;47.714;9.414;2024-02-16T03:16:41;2.00;;;1.60;;
76656;SDS011;65576;47.714;9.414;2024-02-16T03:19:07;5.20;;;2.45;;
76656;SDS011;65576;47.714;9.414;2024-02-16T03:21:35;1.67;;;1.45;;
76656;SDS011;65576;47.714;9.414;2024-02-16T03:24:01;1.55;;;1.30;;
76656;SDS011;65576;47.714;9.414;2024-02-16T03:26:27;1.50;;;1.13;;
76656;SDS011;65576;47.714;9.414;2024-02-16T03:28:52;1.90;;;1.58;;
76656;SDS011;65576;47.714;9.414;2024-02-16T03:31:18;2.50;;;1.88;;
76656;SDS011;65576;47.714;9.414;2024-02-16T03:33:45;2.45;;;1.98;;
76656;SDS011;65576;47.714;9.414;2024-02-16T03:36:10;1.33;;;1.20;;
76656;SDS011;65576;47.714;9.414;2024-02-16T03:38:37;1.88;;;1.50;;
76656;SDS011;65576;47.714;9.414;2024-02-16T03:41:03;3.30;;;2.25;;
76656;SDS011;65576;47.714;9.414;2024-02-16T03:43:29;2.45;;;1.23;;
76656;SDS011;65576;47.714;9.414;2024-02-16T03:45:54;7.18;;;1.45;;
76656;SDS011;65576;47.714;9.414;2024-02-16T03:48:20;1.98;;;1.77;;
76656;SDS011;65576;47.714;9.414;2024-02-16T03:50:45;1.33;;;1.20;;
76656;SDS011;65576;47.714;9.414;2024-02-16T03:53:11;4.15;;;2.22;;
76656;SDS011;65576;47.714;9.414;2024-02-16T03:55:36;2.53;;;1.92;;
76656;SDS011;65576;47.714;9.414;2024-02-16T03:58:03;3.50;;;2.53;;
76656;SDS011;65576;47.714;9.414;2024-02-16T04:00:29;2.92;;;1.70;;
76656;SDS011;65576;47.714;9.414;2024-02-16T04:02:54;1.42;;;1.20;;
76656;SDS011;65576;47.714;9.414;2024-02-16T04:05:19;1.88;;;1.50;;
76656;SDS011;65576;47.714;9.414;2024-02-16T04:07:45;2.88;;;1.58;;
76656;SDS011;65576;47.714;9.414;2024-02-16T04:10:10;1.25;;;1.15;;
76656;SDS011;65576;47.714;9.414;2024-02-16T04:12:36;4.95;;;1.83;;
76656;SDS011;65576;47.714;9.414;2024-02-16T04:15:01;2.30;;;1.40;;
76656;SDS011;65576;47.714;9.414;2024-02-16T04:17:27;1.45;;;1.35;;
76656;SDS011;65576;47.714;9.414;2024-02-16T04:19:52;1.30;;;1.20;;
76656;SDS011;65576;47.714;9.414;2024-02-16T04:22:17;1.48;;;1.10;;
76656;SDS011;65576;47.714;9.414;2024-02-16T04:24:43;1.75;;;1.17;;
76656;SDS011;65576;47.714;9.414;2024-02-16T04:27:08;2.15;;;1.80;;
76656;SDS011;65576;47.714;9.414;2024-02-16T04:29:33;1.40;;;1.05;;
76656;SDS011;65576;47.714;9.414;2024-02-16T04:31:59;1.73;;;1.48;;
76656;SDS011;65576;47.714;9.414;2024-02-16T04:34:24;2.88;;;1.80;;
76656;SDS011;65576;47.714;9.414;2024-02-16T04:36:49;1.05;;;0.98;;
76656;SDS011;65576;47.714;9.414;2024-02-16T04:39:14;2.47;;;1.80;;
76656;SDS011;65576;47.714;9.414;2024-02-16T04:41:40;1.10;;;1.00;;
76656;SDS011;65576;47.714;9.414;2024-02-16T04:44:05;4.43;;;2.25;;
76656;SDS011;65576;47.714;9.414;2024-02-16T04:46:31;2.28;;;1.90;;
76656;SDS011;65576;47.714;9.414;2024-02-16T04:48:56;1.63;;;0.90;;
76656;SDS011;65576;47.714;9.414;2024-02-16T04:51:21;4.10;;;1.67;;
76656;SDS011;65576;47.714;9.414;2024-02-16T04:53:47;4.47;;;1.35;;
76656;SDS011;65576;47.714;9.414;2024-02-16T04:56:13;3.33;;;1.48;;
76656;SDS011;65576;47.714;9.414;2024-02-16T04:58:41;2.15;;;1.58;;
76656;SDS011;65576;47.714;9.414;2024-02-16T05:01:07;1.45;;;1.10;;
76656;SDS011;65576;47.714;9.414;2024-02-16T05:03:33;0.68;;;0.68;;
76656;SDS011;65576;47.714;9.414;2024-02-16T05:05:59;1.17;;;1.08;;
76656;SDS011;65576;47.714;9.414;2024-02-16T05:08:25;5.00;;;2.17;;
76656;SDS011;65576;47.714;9.414;2024-02-16T05:10:50;1.27;;;1.17;;
76656;SDS011;65576;47.714;9.414;2024-02-16T05:13:16;1.95;;;1.30;;
76656;SDS011;65576;47.714;9.414;2024-02-16T05:15:42;3.80;;;1.77;;
76656;SDS011;65576;47.714;9.414;2024-02-16T05:18:08;1.60;;;1.50;;
76656;SDS011;65576;47.714;9.414;2024-02-16T05:20:35;1.83;;;1.50;;
76656;SDS011;65576;47.714;9.414;2024-02-16T05:23:01;3.60;;;1.67;;
76656;SDS011;65576;47.714;9.414;2024-02-16T05:25:26;7.00;;;1.95;;
76656;SDS011;65576;47.714;9.414;2024-02-16T05:27:52;1.23;;;1.02;;
76656;SDS011;65576;47.714;9.414;2024-02-16T05:30:17;2.03;;;1.50;;
76656;SDS011;65576;47.714;9.414;2024-02-16T05:32:43;1.05;;;1.00;;
76656;SDS011;65576;47.714;9.414;2024-02-16T05:35:09;2.33;;;1.30;;
76656;SDS011;65576;47.714;9.414;2024-02-16T05:37:46;2.10;;;1.42;;
76656;SDS011;65576;47.714;9.414;2024-02-16T05:40:21;2.92;;;1.25;;
76656;SDS011;65576;47.714;9.414;2024-02-16T05:42:49;1.42;;;1.20;;
76656;SDS011;65576;47.714;9.414;2024-02-16T05:45:14;2.03;;;1.38;;
76656;SDS011;65576;47.714;9.414;2024-02-16T05:47:40;1.70;;;1.23;;
76656;SDS011;65576;47.714;9.414;2024-02-16T05:50:08;1.15;;;1.00;;
76656;SDS011;65576;47.714;9.414;2024-02-16T05:52:33;3.40;;;1.55;;
76656;SDS011;65576;47.714;9.414;2024-02-16T05:54:59;0.95;;;0.90;;
76656;SDS011;65576;47.714;9.414;2024-02-16T05:57:24;4.57;;;1.63;;
76656;SDS011;65576;47.714;9.414;2024-02-16T05:59:50;1.30;;;1.20;;
76656;SDS011;65576;47.714;9.414;2024-02-16T06:02:17;1.63;;;1.52;;
76656;SDS011;65576;47.714;9.414;2024-02-16T06:04:42;1.75;;;1.25;;
76656;SDS011;65576;47.714;9.414;2024-02-16T06:07:08;2.67;;;1.63;;
76656;SDS011;65576;47.714;9.414;2024-02-16T06:09:33;2.13;;;1.60;;
76656;SDS011;65576;47.714;9.414;2024-02-16T06:12:00;4.30;;;1.70;;
76656;SDS011;65576;47.714;9.414;2024-02-16T06:14:28;1.98;;;1.55;;
76656;SDS011;65576;47.714;9.414;2024-02-16T06:17:05;2.53;;;1.73;;
76656;SDS011;65576;47.714;9.414;2024-02-16T06:19:31;1.95;;;1.60;;
76656;SDS011;65576;47.714;9.414;2024-02-16T06:21:56;17.42;;;1.45;;
76656;SDS011;65576;47.714;9.414;2024-02-16T06:24:22;2.10;;;1.73;;
76656;SDS011;65576;47.714;9.414;2024-02-16T06:26:48;1.50;;;1.30;;
76656;SDS011;65576;47.714;9.414;2024-02-16T06:29:13;3.35;;;1.50;;
76656;SDS011;65576;47.714;9.414;2024-02-16T06:31:39;2.00;;;1.50;;
76656;SDS011;65576;47.714;9.414;2024-02-16T06:34:04;10.20;;;2.25;;
76656;SDS011;65576;47.714;9.414;2024-02-16T06:36:29;1.92;;;1.73;;
76656;SDS011;65576;47.714;9.414;2024-02-16T06:38:55;3.42;;;1.35;;
76656;SDS011;65576;47.714;9.414;2024-02-16T06:41:20;1.77;;;1.42;;
76656;SDS011;65576;47.714;9.414;2024-02-16T06:43:46;2.42;;;1.83;;
76656;SDS011;65576;47.714;9.414;2024-02-16T06:46:11;2.67;;;2.00;;
76656;SDS011;65576;47.714;9.414;2024-02-16T06:48:36;2.20;;;1.63;;
76656;SDS011;65576;47.714;9.414;2024-02-16T06:51:02;1.92;;;1.75;;
76656;SDS011;65576;47.714;9.414;2024-02-16T06:53:27;5.07;;;1.73;;
76656;SDS011;65576;47.714;9.414;2024-02-16T06:55:52;2.67;;;1.58;;
76656;SDS011;65576;47.714;9.414;2024-02-16T06:58:17;1.42;;;1.33;;
76656;SDS011;65576;47.714;9.414;2024-02-16T07:00:43;3.70;;;1.88;;
76656;SDS011;65576;47.714;9.414;2024-02-16T07:03:08;1.38;;;1.00;;
76656;SDS011;65576;47.714;9.414;2024-02-16T07:05:34;1.77;;;1.67;;
76656;SDS011;65576;47.714;9.414;2024-02-16T07:08:00;3.85;;;1.55;;
76656;SDS011;65576;47.714;9.414;2024-02-16T07:10:25;4.60;;;1.83;;
76656;SDS011;65576;47.714;9.414;2024-02-16T07:12:50;3.60;;;1.67;;
76656;SDS011;65576;47.714;9.414;2024-02-16T07:15:15;5.60;;;2.20;;
76656;SDS011;65576;47.714;9.414;2024-02-16T07:17:41;3.22;;;1.95;;
76656;SDS011;65576;47.714;9.414;2024-02-16T07:20:06;3.17;;;2.47;;
76656;SDS011;65576;47.714;9.414;2024-02-16T07:22:32;2.50;;;1.73;;
76656;SDS011;65576;47.714;9.414;2024-02-16T07:24:58;2.60;;;1.70;;
76656;SDS011;65576;47.714;9.414;2024-02-16T07:27:25;9.60;;;2.47;;
76656;SDS011;65576;47.714;9.414;2024-02-16T07:29:50;3.53;;;2.85;;
76656;SDS011;65576;47.714;9.414;2024-02-16T07:32:16;3.08;;;1.67;;
76656;SDS011;65576;47.714;9.414;2024-02-16T07:34:45;3.50;;;2.35;;
76656;SDS011;65576;47.714;9.414;2024-02-16T07:37:10;4.38;;;2.38;;
76656;SDS011;65576;47.714;9.414;2024-02-16T07:39:36;4.20;;;2.25;;
76656;SDS011;65576;47.714;9.414;2024-02-16T07:42:01;2.53;;;1.88;;
76656;SDS011;65576;47.714;9.414;2024-02-16T07:44:27;2.83;;;2.05;;
76656;SDS011;65576;47.714;9.414;2024-02-16T07:46:53;3.55;;;2.28;;
76656;SDS011;65576;47.714;9.414;2024-02-16T07:49:18;3.83;;;2.65;;
76656;SDS011;65576;47.714;9.414;2024-02-16T07:51:44;1.92;;;1.73;;
76656;SDS011;65576;47.714;9.414;2024-02-16T07:54:09;2.88;;;2.22;;
76656;SDS011;65576;47.714;9.414;2024-02-16T07:56:34;2.85;;;2.08;;
76656;SDS011;65576;47.714;9.414;2024-02-16T07:58:59;3.95;;;2.38;;
76656;SDS011;65576;47.714;9.414;2024-02-16T08:01:25;5.57;;;2.95;;
76656;SDS011;65576;47.714;9.414;2024-02-16T08:03:50;7.57;;;2.88;;
76656;SDS011;65576;47.714;9.414;2024-02-16T08:06:16;3.97;;;2.67;;
76656;SDS011;65576;47.714;9.414;2024-02-16T08:08:46;3.67;;;2.42;;
76656;SDS011;65576;47.714;9.414;2024-02-16T08:11:11;3.67;;;2.78;;
76656;SDS011;65576;47.714;9.414;2024-02-16T08:13:37;3.85;;;3.10;;
76656;SDS011;65576;47.714;9.414;2024-02-16T08:16:02;5.38;;;3.20;;
76656;SDS011;65576;47.714;9.414;2024-02-16T08:18:31;4.75;;;3.25;;
76656;SDS011;65576;47.714;9.414;2024-02-16T08:20:57;5.82;;;2.55;;
76656;SDS011;65576;47.714;9.414;2024-02-16T08:23:22;4.88;;;2.95;;
76656;SDS011;65576;47.714;9.414;2024-02-16T08:25:47;3.90;;;3.03;;
76656;SDS011;65576;47.714;9.414;2024-02-16T08:28:13;3.35;;;2.33;;
76656;SDS011;65576;47.714;9.414;2024-02-16T08:30:39;4.15;;;2.88;;
76656;SDS011;65576;47.714;9.414;2024-02-16T08:33:06;3.58;;;2.72;;
76656;SDS011;65576;47.714;9.414;2024-02-16T08:35:32;3.92;;;2.60;;
76656;SDS011;65576;47.714;9.414;2024-02-16T08:37:57;3.60;;;2.72;;
76656;SDS011;65576;47.714;9.414;2024-02-16T08:40:22;4.75;;;2.92;;
76656;SDS011;65576;47.714;9.414;2024-02-16T08:42:48;4.38;;;3.25;;
76656;SDS011;65576;47.714;9.414;2024-02-16T08:45:14;4.05;;;2.60;;
76656;SDS011;65576;47.714;9.414;2024-02-16T08:47:42;3.53;;;2.40;;
76656;SDS011;65576;47.714;9.414;2024-02-16T08:50:08;5.55;;;2.92;;
76656;SDS011;65576;47.714;9.414;2024-02-16T08:52:34;3.38;;;2.28;;
76656;SDS011;65576;47.714;9.414;2024-02-16T08:54:59;3.55;;;2.60;;
76656;SDS011;65576;47.714;9.414;2024-02-16T08:57:24;3.25;;;2.58;;
76656;SDS011;65576;47.714;9.414;2024-02-16T08:59:50;2.75;;;2.42;;
76656;SDS011;65576;47.714;9.414;2024-02-16T09:02:15;3.42;;;2.50;;
76656;SDS011;65576;47.714;9.414;2024-02-16T09:04:40;2.90;;;2.10;;
76656;SDS011;65576;47.714;9.414;2024-02-16T09:07:06;4.07;;;2.70;;
76656;SDS011;65576;47.714;9.414;2024-02-16T09:09:31;8.80;;;3.13;;
76656;SDS011;65576;47.714;9.414;2024-02-16T09:11:56;4.28;;;2.53;;
76656;SDS011;65576;47.714;9.414;2024-02-16T09:14:22;4.60;;;2.88;;
76656;SDS011;65576;47.714;9.414;2024-02-16T09:16:51;3.22;;;2.33;;
76656;SDS011;65576;47.714;9.414;2024-02-16T09:19:19;5.00;;;3.35;;
76656;SDS011;65576;47.714;9.414;2024-02-16T09:21:48;3.55;;;2.90;;
76656;SDS011;65576;47.714;9.414;2024-02-16T09:24:14;4.90;;;2.88;;
76656;SDS011;65576;47.714;9.414;2024-02-16T09:26:43;4.40;;;2.83;;
76656;SDS011;65576;47.714;9.414;2024-02-16T09:29:11;4.38;;;2.50;;
76656;SDS011;65576;47.714;9.414;2024-02-16T09:31:37;3.75;;;2.47;;
76656;SDS011;65576;47.714;9.414;2024-02-16T09:34:03;4.68;;;3.00;;
76656;SDS011;65576;47.714;9.414;2024-02-16T09:36:29;11.90;;;3.00;;
76656;SDS011;65576;47.714;9.414;2024-02-16T09:38:54;14.40;;;2.90;;
76656;SDS011;65576;47.714;9.414;2024-02-16T09:41:19;3.90;;;2.45;;
76656;SDS011;65576;47.714;9.414;2024-02-16T09:43:45;5.60;;;2.72;;
76656;SDS011;65576;47.714;9.414;2024-02-16T09:46:10;3.60;;;2.85;;
76656;SDS011;65576;47.714;9.414;2024-02-16T09:48:35;3.38;;;2.55;;
76656;SDS011;65576;47.714;9.414;2024-02-16T09:51:01;4.80;;;3.08;;
76656;SDS011;65576;47.714;9.414;2024-02-16T09:53:27;4.22;;;3.10;;
76656;SDS011;65576;47.714;9.414;2024-02-16T09:55:53;4.32;;;3.28;;
76656;SDS011;65576;47.714;9.414;2024-02-16T09:58:19;5.22;;;3.17;;
76656;SDS011;65576;47.714;9.414;2024-02-16T10:00:50;6.03;;;3.45;;
76656;SDS011;65576;47.714;9.414;2024-02-16T10:03:26;6.90;;;3.88;;
76656;SDS011;65576;47.714;9.414;2024-02-16T10:06:03;8.40;;;4.68;;
76656;SDS011;65576;47.714;9.414;2024-02-16T10:08:29;5.28;;;3.97;;
76656;SDS011;65576;47.714;9.414;2024-02-16T10:11:01;8.60;;;4.88;;
76656;SDS011;65576;47.714;9.414;2024-02-16T10:13:30;6.15;;;3.90;;
76656;SDS011;65576;47.714;9.414;2024-02-16T10:16:05;6.90;;;4.57;;
76656;SDS011;65576;47.714;9.414;2024-02-16T10:18:33;6.95;;;4.53;;
76656;SDS011;65576;47.714;9.414;2024-02-16T10:20:59;9.05;;;4.57;;
76656;SDS011;65576;47.714;9.414;2024-02-16T10:23:24;10.40;;;4.15;;
76656;SDS011;65576;47.714;9.414;2024-02-16T10:25:49;6.72;;;4.60;;
76656;SDS011;65576;47.714;9.414;2024-02-16T10:28:15;6.82;;;4.10;;
76656;SDS011;65576;47.714;9.414;2024-02-16T10:30:42;6.97;;;3.63;;
76656;SDS011;65576;47.714;9.414;2024-02-16T10:33:08;8.38;;;4.50;;
76656;SDS011;65576;47.714;9.414;2024-02-16T10:35:34;6.13;;;4.18;;
76656;SDS011;65576;47.714;9.414;2024-02-16T10:38:05;5.80;;;3.90;;
76656;SDS011;65576;47.714;9.414;2024-02-16T10:40:41;7.38;;;3.75;;
76656;SDS011;65576;47.714;9.414;2024-02-16T10:43:07;4.32;;;3.55;;
76656;SDS011;65576;47.714;9.414;2024-02-16T10:45:34;4.90;;;3.20;;
76656;SDS011;65576;47.714;9.414;2024-02-16T10:48:01;6.05;;;3.97;;
76656;SDS011;65576;47.714;9.414;2024-02-16T10:50:27;7.20;;;3.58;;
76656;SDS011;65576;47.714;9.414;2024-02-16T10:52:53;4.85;;;3.28;;
76656;SDS011;65576;47.714;9.414;2024-02-16T10:55:18;4.20;;;3.17;;
76656;SDS011;65576;47.714;9.414;2024-02-16T10:57:44;4.78;;;3.60;;
76656;SDS011;65576;47.714;9.414;2024-02-16T11:00:09;4.03;;;3.05;;
76656;SDS011;65576;47.714;9.414;2024-02-16T11:02:55;6.85;;;3.28;;
76656;SDS011;65576;47.714;9.414;2024-02-16T11:05:36;6.47;;;3.70;;
76656;SDS011;65576;47.714;9.414;2024-02-16T11:08:11;4.47;;;3.08;;
76656;SDS011;65576;47.714;9.414;2024-02-16T11:10:38;4.07;;;2.42;;
76656;SDS011;65576;47.714;9.414;2024-02-16T11:13:03;5.10;;;3.40;;
76656;SDS011;65576;47.714;9.414;2024-02-16T11:15:30;6.20;;;3.60;;
76656;SDS011;65576;47.714;9.414;2024-02-16T11:17:56;5.47;;;3.20;;
76656;SDS011;65576;47.714;9.414;2024-02-16T11:20:25;6.97;;;4.05;;
76656;SDS011;65576;47.714;9.414;2024-02-16T11:22:53;5.68;;;3.88;;
76656;SDS011;65576;47.714;9.414;2024-02-16T11:25:19;13.88;;;3.17;;
76656;SDS011;65576;47.714;9.414;2024-02-16T11:27:46;7.55;;;3.42;;
76656;SDS011;65576;47.714;9.414;2024-02-16T11:30:12;6.07;;;3.22;;
76656;SDS011;65576;47.714;9.414;2024-02-16T11:32:37;6.75;;;3.40;;
76656;SDS011;65576;47.714;9.414;2024-02-16T11:35:09;4.65;;;3.13;;
76656;SDS011;65576;47.714;9.414;2024-02-16T11:37:36;5.07;;;3.13;;
76656;SDS011;65576;47.714;9.414;2024-02-16T11:40:01;4.53;;;3.50;;
76656;SDS011;65576;47.714;9.414;2024-02-16T11:42:27;3.65;;;3.10;;
76656;SDS011;65576;47.714;9.414;2024-02-16T11:44:52;4.57;;;3.25;;
76656;SDS011;65576;47.714;9.414;2024-02-16T11:47:19;5.20;;;3.33;;
76656;SDS011;65576;47.714;9.414;2024-02-16T11:49:50;5.93;;;3.40;;
76656;SDS011;65576;47.714;9.414;2024-02-16T11:52:24;4.43;;;3.00;;
76656;SDS011;65576;47.714;9.414;2024-02-16T11:54:49;3.80;;;3.03;;
76656;SDS011;65576;47.714;9.414;2024-02-16T11:57:15;6.53;;;3.53;;
76656;SDS011;65576;47.714;9.414;2024-02-16T11:59:40;6.13;;;3.65;;
76656;SDS011;65576;47.714;9.414;2024-02-16T12:02:05;4.45;;;2.75;;
76656;SDS011;65576;47.714;9.414;2024-02-16T12:04:31;7.10;;;2.83;;
76656;SDS011;65576;47.714;9.414;2024-02-16T12:06:59;3.53;;;2.63;;
76656;SDS011;65576;47.714;9.414;2024-02-16T12:09:25;10.00;;;3.80;;
76656;SDS011;65576;47.714;9.414;2024-02-16T12:11:54;3.60;;;2.88;;
76656;SDS011;65576;47.714;9.414;2024-02-16T12:14:23;6.50;;;3.28;;
76656;SDS011;65576;47.714;9.414;2024-02-16T12:16:49;4.70;;;3.60;;
76656;SDS011;65576;47.714;9.414;2024-02-16T12:19:21;5.43;;;3.45;;
76656;SDS011;65576;47.714;9.414;2024-02-16T12:21:54;5.47;;;3.75;;
76656;SDS011;65576;47.714;9.414;2024-02-16T12:24:22;5.72;;;3.30;;
76656;SDS011;65576;47.714;9.414;2024-02-16T12:26:48;5.60;;;3.20;;
76656;SDS011;65576;47.714;9.414;2024-02-16T12:29:13;5.07;;;3.40;;
76656;SDS011;65576;47.714;9.414;2024-02-16T12:31:45;4.72;;;3.33;;
76656;SDS011;65576;47.714;9.414;2024-02-16T12:34:13;7.13;;;3.47;;
76656;SDS011;65576;47.714;9.414;2024-02-16T12:36:38;5.10;;;3.38;;
76656;SDS011;65576;47.714;9.414;2024-02-16T12:39:04;6.68;;;3.88;;
76656;SDS011;65576;47.714;9.414;2024-02-16T12:41:31;7.18;;;3.58;;
76656;SDS011;65576;47.714;9.414;2024-02-16T12:43:59;4.80;;;3.75;;
76656;SDS011;65576;47.714;9.414;2024-02-16T12:46:24;5.70;;;3.85;;
76656;SDS011;65576;47.714;9.414;2024-02-16T12:48:50;4.78;;;3.30;;
76656;SDS011;65576;47.714;9.414;2024-02-16T12:51:16;12.45;;;4.45;;
76656;SDS011;65576;47.714;9.414;2024-02-16T12:53:41;8.20;;;4.93;;
76656;SDS011;65576;47.714;9.414;2024-02-16T12:56:07;4.78;;;3.72;;
76656;SDS011;65576;47.714;9.414;2024-02-16T12:58:33;5.45;;;3.72;;
76656;SDS011;65576;47.714;9.414;2024-02-16T13:00:59;6.65;;;3.85;;
76656;SDS011;65576;47.714;9.414;2024-02-16T13:03:25;8.02;;;3.78;;
76656;SDS011;65576;47.714;9.414;2024-02-16T13:05:50;4.95;;;3.33;;
76656;SDS011;65576;47.714;9.414;2024-02-16T13:08:15;5.35;;;3.85;;
76656;SDS011;65576;47.714;9.414;2024-02-16T13:10:40;4.03;;;2.90;;
76656;SDS011;65576;47.714;9.414;2024-02-16T13:13:07;4.88;;;2.88;;
76656;SDS011;65576;47.714;9.414;2024-02-16T13:15:32;8.60;;;2.90;;
76656;SDS011;65576;47.714;9.414;2024-02-16T13:17:58;2.67;;;1.90;;
76656;SDS011;65576;47.714;9.414;2024-02-16T13:20:23;3.90;;;1.70;;
76656;SDS011;65576;47.714;9.414;2024-02-16T13:22:49;3.55;;;2.03;;
76656;SDS011;65576;47.714;9.414;2024-02-16T13:25:14;6.32;;;1.65;;
76656;SDS011;65576;47.714;9.414;2024-02-16T13:27:40;2.72;;;1.60;;
76656;SDS011;65576;47.714;9.414;2024-02-16T13:30:05;3.50;;;2.13;;
76656;SDS011;65576;47.714;9.414;2024-02-16T13:32:32;4.03;;;2.30;;
76656;SDS011;65576;47.714;9.414;2024-02-16T13:34:58;2.55;;;1.67;;
76656;SDS011;65576;47.714;9.414;2024-02-16T13:37:24;3.05;;;2.00;;
76656;SDS011;65576;47.714;9.414;2024-02-16T13:39:49;7.50;;;1.92;;
76656;SDS011;65576;47.714;9.414;2024-02-16T13:42:15;2.65;;;1.58;;
76656;SDS011;65576;47.714;9.414;2024-02-16T13:44:41;3.80;;;2.10;;
76656;SDS011;65576;47.714;9.414;2024-02-16T13:47:06;6.82;;;1.80;;
76656;SDS011;65576;47.714;9.414;2024-02-16T13:49:31;5.88;;;1.90;;
76656;SDS011;65576;47.714;9.414;2024-02-16T13:51:57;2.97;;;1.83;;
76656;SDS011;65576;47.714;9.414;2024-02-16T13:54:24;8.30;;;1.77;;
76656;SDS011;65576;47.714;9.414;2024-02-16T13:56:50;4.03;;;1.80;;
76656;SDS011;65576;47.714;9.414;2024-02-16T13:59:15;4.70;;;2.10;;
76656;SDS011;65576;47.714;9.414;2024-02-16T14:01:40;2.63;;;1.92;;
76656;SDS011;65576;47.714;9.414;2024-02-16T14:04:06;4.45;;;1.90;;
76656;SDS011;65576;47.714;9.414;2024-02-16T14:06:31;3.20;;;1.80;;
76656;SDS011;65576;47.714;9.414;2024-02-16T14:08:56;2.75;;;1.50;;
76656;SDS011;65576;47.714;9.414;2024-02-16T14:11:22;5.10;;;1.85;;
76656;SDS011;65576;47.714;9.414;2024-02-16T14:13:48;5.00;;;1.67;;
76656;SDS011;65576;47.714;9.414;2024-02-16T14:16:13;2.80;;;2.00;;
76656;SDS011;65576;47.714;9.414;2024-02-16T14:18:39;3.55;;;2.13;;
76656;SDS011;65576;47.714;9.414;2024-02-16T14:21:04;2.95;;;1.67;;
76656;SDS011;65576;47.714;9.414;2024-02-16T14:23:29;3.80;;;2.28;;
76656;SDS011;65576;47.714;9.414;2024-02-16T14:25:55;3.22;;;1.75;;
76656;SDS011;65576;47.714;9.414;2024-02-16T14:28:20;3.42;;;2.08;;
76656;SDS011;65576;47.714;9.414;2024-02-16T14:30:46;5.00;;;2.10;;
76656;SDS011;65576;47.714;9.414;2024-02-16T14:33:11;2.92;;;1.48;;
76656;SDS011;65576;47.714;9.414;2024-02-16T14:35:36;4.97;;;1.40;;
76656;SDS011;65576;47.714;9.414;2024-02-16T14:38:02;4.55;;;1.55;;
76656;SDS011;65576;47.714;9.414;2024-02-16T14:40:29;3.83;;;1.65;;